sensor_id;sensor_type;location;lat;lon;timestamp;P1;durP1;ratioP1;P2;durP2;ratioP2
71172;SDS011;58875;51.996;4.504;2022-12-29T00:02:23;3.10;;;3.10;;
71172;SDS011;58875;51.996;4.504;2022-12-29T00:04:49;3.03;;;3.03;;
71172;SDS011;58875;51.996;4.504;2022-12-29T00:07:15;2.93;;;2.93;;
71172;SDS011;58875;51.996;4.504;2022-12-29T00:09:41;2.90;;;2.90;;
71172;SDS011;58875;51.996;4.504;2022-12-29T00:12:06;2.71;;;2.71;;
71172;SDS011;58875;51.996;4.504;2022-12-29T00:14:32;2.84;;;2.84;;
71172;SDS011;58875;51.996;4.504;2022-12-29T00:17:16;2.86;;;2.86;;
71172;SDS011;58875;51.996;4.504;2022-12-29T00:19:41;2.67;;;2.67;;
71172;SDS011;58875;51.996;4.504;2022-12-29T00:22:25;2.46;;;2.46;;
71172;SDS011;58875;51.996;4.504;2022-12-29T00:25:10;2.57;;;2.57;;
71172;SDS011;58875;51.996;4.504;2022-12-29T00:27:56;2.80;;;2.80;;
71172;SDS011;58875;51.996;4.504;2022-12-29T00:30:41;2.36;;;2.36;;
71172;SDS011;58875;51.996;4.504;2022-12-29T00:33:27;2.24;;;2.24;;
71172;SDS011;58875;51.996;4.504;2022-12-29T00:36:25;2.30;;;2.30;;
71172;SDS011;58875;51.996;4.504;2022-12-29T00:38:59;2.14;;;2.14;;
71172;SDS011;58875;51.996;4.504;2022-12-29T00:41:49;2.22;;;2.22;;
71172;SDS011;58875;51.996;4.504;2022-12-29T00:44:33;2.25;;;2.25;;
71172;SDS011;58875;51.996;4.504;2022-12-29T00:46:59;2.17;;;2.17;;
71172;SDS011;58875;51.996;4.504;2022-12-29T00:49:28;2.26;;;2.26;;
71172;SDS011;58875;51.996;4.504;2022-12-29T00:54:29;2.20;;;2.20;;
71172;SDS011;58875;51.996;4.504;2022-12-29T00:56:58;2.32;;;2.32;;
71172;SDS011;58875;51.996;4.504;2022-12-29T00:59:23;2.23;;;2.23;;
71172;SDS011;58875;51.996;4.504;2022-12-29T01:01:50;2.15;;;2.15;;
71172;SDS011;58875;51.996;4.504;2022-12-29T01:04:17;2.15;;;2.15;;
71172;SDS011;58875;51.996;4.504;2022-12-29T01:06:44;2.09;;;2.09;;
71172;SDS011;58875;51.996;4.504;2022-12-29T01:09:09;2.00;;;2.00;;
71172;SDS011;58875;51.996;4.504;2022-12-29T01:11:54;2.11;;;2.11;;
71172;SDS011;58875;51.996;4.504;2022-12-29T01:14:20;2.20;;;2.20;;
71172;SDS011;58875;51.996;4.504;2022-12-29T01:16:46;2.52;;;2.52;;
71172;SDS011;58875;51.996;4.504;2022-12-29T01:19:13;2.41;;;2.41;;
71172;SDS011;58875;51.996;4.504;2022-12-29T01:21:41;2.61;;;2.61;;
71172;SDS011;58875;51.996;4.504;2022-12-29T01:24:07;2.42;;;2.42;;
71172;SDS011;58875;51.996;4.504;2022-12-29T01:26:33;2.62;;;2.62;;
71172;SDS011;58875;51.996;4.504;2022-12-29T01:28:58;2.81;;;2.81;;
71172;SDS011;58875;51.996;4.504;2022-12-29T01:31:24;2.90;;;2.90;;
71172;SDS011;58875;51.996;4.504;2022-12-29T01:33:49;2.85;;;2.85;;
71172;SDS011;58875;51.996;4.504;2022-12-29T01:36:16;2.92;;;2.92;;
71172;SDS011;58875;51.996;4.504;2022-12-29T01:38:43;2.45;;;2.45;;
71172;SDS011;58875;51.996;4.504;2022-12-29T01:41:09;2.82;;;2.82;;
71172;SDS011;58875;51.996;4.504;2022-12-29T01:43:59;2.92;;;2.92;;
71172;SDS011;58875;51.996;4.504;2022-12-29T01:49:11;2.49;;;2.49;;
71172;SDS011;58875;51.996;4.504;2022-12-29T01:51:48;2.23;;;2.23;;
71172;SDS011;58875;51.996;4.504;2022-12-29T01:54:30;2.07;;;2.07;;
71172;SDS011;58875;51.996;4.504;2022-12-29T01:57:08;1.84;;;1.84;;
71172;SDS011;58875;51.996;4.504;2022-12-29T01:59:42;1.82;;;1.82;;
71172;SDS011;58875;51.996;4.504;2022-12-29T02:02:16;1.55;;;1.55;;
71172;SDS011;58875;51.996;4.504;2022-12-29T02:04:42;1.58;;;1.58;;
71172;SDS011;58875;51.996;4.504;2022-12-29T02:07:17;1.32;;;1.31;;
71172;SDS011;58875;51.996;4.504;2022-12-29T02:09:48;1.42;;;1.40;;
71172;SDS011;58875;51.996;4.504;2022-12-29T02:12:16;1.48;;;1.39;;
71172;SDS011;58875;51.996;4.504;2022-12-29T02:14:45;1.66;;;1.49;;
71172;SDS011;58875;51.996;4.504;2022-12-29T02:25:52;2.36;;;1.90;;
71172;SDS011;58875;51.996;4.504;2022-12-29T02:28:41;2.26;;;1.78;;
71172;SDS011;58875;51.996;4.504;2022-12-29T02:34:10;2.35;;;1.83;;
71172;SDS011;58875;51.996;4.504;2022-12-29T02:50:43;3.46;;;2.55;;
71172;SDS011;58875;51.996;4.504;2022-12-29T02:53:35;4.02;;;2.82;;
71172;SDS011;58875;51.996;4.504;2022-12-29T02:56:21;4.67;;;3.18;;
71172;SDS011;58875;51.996;4.504;2022-12-29T02:58:46;5.24;;;3.52;;
71172;SDS011;58875;51.996;4.504;2022-12-29T03:07:57;6.03;;;3.86;;
71172;SDS011;58875;51.996;4.504;2022-12-29T03:09:55;5.93;;;3.81;;
71172;SDS011;58875;51.996;4.504;2022-12-29T03:15:45;4.74;;;3.11;;
71172;SDS011;58875;51.996;4.504;2022-12-29T03:18:28;4.76;;;3.16;;
71172;SDS011;58875;51.996;4.504;2022-12-29T03:21:39;4.66;;;3.14;;
71172;SDS011;58875;51.996;4.504;2022-12-29T03:24:29;4.30;;;2.89;;
71172;SDS011;58875;51.996;4.504;2022-12-29T03:27:00;4.25;;;2.89;;
71172;SDS011;58875;51.996;4.504;2022-12-29T03:29:31;4.28;;;2.89;;
71172;SDS011;58875;51.996;4.504;2022-12-29T03:32:02;4.54;;;3.06;;
71172;SDS011;58875;51.996;4.504;2022-12-29T03:34:30;4.22;;;2.84;;
71172;SDS011;58875;51.996;4.504;2022-12-29T03:37:06;4.16;;;2.82;;
71172;SDS011;58875;51.996;4.504;2022-12-29T03:39:38;3.51;;;2.42;;
71172;SDS011;58875;51.996;4.504;2022-12-29T03:42:11;3.89;;;2.68;;
71172;SDS011;58875;51.996;4.504;2022-12-29T03:44:42;3.59;;;2.47;;
71172;SDS011;58875;51.996;4.504;2022-12-29T03:47:09;3.69;;;2.55;;
71172;SDS011;58875;51.996;4.504;2022-12-29T03:49:37;3.40;;;2.42;;
71172;SDS011;58875;51.996;4.504;2022-12-29T03:52:02;3.67;;;2.66;;
71172;SDS011;58875;51.996;4.504;2022-12-29T03:54:29;3.41;;;2.48;;
71172;SDS011;58875;51.996;4.504;2022-12-29T03:56:55;3.60;;;2.60;;
71172;SDS011;58875;51.996;4.504;2022-12-29T03:59:20;3.11;;;2.26;;
71172;SDS011;58875;51.996;4.504;2022-12-29T04:01:46;3.72;;;2.76;;
71172;SDS011;58875;51.996;4.504;2022-12-29T04:04:12;3.81;;;2.77;;
71172;SDS011;58875;51.996;4.504;2022-12-29T04:06:38;4.31;;;2.99;;
71172;SDS011;58875;51.996;4.504;2022-12-29T04:09:03;5.07;;;3.42;;
71172;SDS011;58875;51.996;4.504;2022-12-29T04:11:29;5.44;;;3.60;;
71172;SDS011;58875;51.996;4.504;2022-12-29T04:13:55;6.74;;;4.35;;
71172;SDS011;58875;51.996;4.504;2022-12-29T04:16:20;7.97;;;4.99;;
71172;SDS011;58875;51.996;4.504;2022-12-29T04:18:45;8.01;;;5.01;;
71172;SDS011;58875;51.996;4.504;2022-12-29T04:21:11;7.48;;;4.67;;
71172;SDS011;58875;51.996;4.504;2022-12-29T04:23:37;7.78;;;4.83;;
71172;SDS011;58875;51.996;4.504;2022-12-29T04:26:04;6.71;;;4.18;;
71172;SDS011;58875;51.996;4.504;2022-12-29T04:28:32;6.82;;;4.27;;
71172;SDS011;58875;51.996;4.504;2022-12-29T04:30:58;6.40;;;4.02;;
71172;SDS011;58875;51.996;4.504;2022-12-29T04:33:23;6.68;;;4.22;;
71172;SDS011;58875;51.996;4.504;2022-12-29T04:35:49;6.35;;;4.01;;
71172;SDS011;58875;51.996;4.504;2022-12-29T04:38:15;6.43;;;4.02;;
71172;SDS011;58875;51.996;4.504;2022-12-29T04:40:41;6.34;;;4.00;;
71172;SDS011;58875;51.996;4.504;2022-12-29T04:43:08;6.10;;;3.88;;
71172;SDS011;58875;51.996;4.504;2022-12-29T04:45:35;6.13;;;3.95;;
71172;SDS011;58875;51.996;4.504;2022-12-29T04:48:01;5.33;;;3.49;;
71172;SDS011;58875;51.996;4.504;2022-12-29T04:50:27;4.99;;;3.27;;
71172;SDS011;58875;51.996;4.504;2022-12-29T04:52:52;5.83;;;3.80;;
71172;SDS011;58875;51.996;4.504;2022-12-29T04:55:18;5.86;;;3.82;;
71172;SDS011;58875;51.996;4.504;2022-12-29T04:57:44;5.70;;;3.73;;
71172;SDS011;58875;51.996;4.504;2022-12-29T05:00:09;6.86;;;4.47;;
71172;SDS011;58875;51.996;4.504;2022-12-29T05:02:36;7.65;;;4.91;;
71172;SDS011;58875;51.996;4.504;2022-12-29T05:05:02;8.13;;;5.18;;
71172;SDS011;58875;51.996;4.504;2022-12-29T05:07:28;7.29;;;4.72;;
71172;SDS011;58875;51.996;4.504;2022-12-29T05:09:53;7.72;;;5.02;;
71172;SDS011;58875;51.996;4.504;2022-12-29T05:12:19;8.45;;;5.49;;
71172;SDS011;58875;51.996;4.504;2022-12-29T05:14:44;7.89;;;5.15;;
71172;SDS011;58875;51.996;4.504;2022-12-29T05:17:10;7.27;;;4.78;;
71172;SDS011;58875;51.996;4.504;2022-12-29T05:19:35;7.58;;;4.92;;
71172;SDS011;58875;51.996;4.504;2022-12-29T05:22:01;8.00;;;5.16;;
71172;SDS011;58875;51.996;4.504;2022-12-29T05:24:26;7.90;;;5.15;;
71172;SDS011;58875;51.996;4.504;2022-12-29T05:26:52;7.81;;;5.14;;
71172;SDS011;58875;51.996;4.504;2022-12-29T05:29:17;8.43;;;5.64;;
71172;SDS011;58875;51.996;4.504;2022-12-29T05:31:43;8.31;;;5.59;;
71172;SDS011;58875;51.996;4.504;2022-12-29T05:34:10;7.54;;;5.13;;
71172;SDS011;58875;51.996;4.504;2022-12-29T05:36:36;6.66;;;4.53;;
71172;SDS011;58875;51.996;4.504;2022-12-29T05:39:02;7.50;;;5.04;;
71172;SDS011;58875;51.996;4.504;2022-12-29T05:41:28;8.16;;;5.39;;
71172;SDS011;58875;51.996;4.504;2022-12-29T05:43:54;9.63;;;6.17;;
71172;SDS011;58875;51.996;4.504;2022-12-29T05:46:19;9.94;;;6.34;;
71172;SDS011;58875;51.996;4.504;2022-12-29T05:48:45;9.48;;;6.11;;
71172;SDS011;58875;51.996;4.504;2022-12-29T05:51:11;8.97;;;5.82;;
71172;SDS011;58875;51.996;4.504;2022-12-29T05:53:36;9.95;;;6.40;;
71172;SDS011;58875;51.996;4.504;2022-12-29T05:56:02;9.60;;;6.12;;
71172;SDS011;58875;51.996;4.504;2022-12-29T05:58:27;9.98;;;6.30;;
71172;SDS011;58875;51.996;4.504;2022-12-29T06:00:53;11.43;;;7.11;;
71172;SDS011;58875;51.996;4.504;2022-12-29T06:03:19;10.98;;;6.82;;
71172;SDS011;58875;51.996;4.504;2022-12-29T06:05:45;11.15;;;6.98;;
71172;SDS011;58875;51.996;4.504;2022-12-29T06:08:11;9.92;;;6.21;;
71172;SDS011;58875;51.996;4.504;2022-12-29T06:10:36;10.28;;;6.41;;
71172;SDS011;58875;51.996;4.504;2022-12-29T06:13:02;9.84;;;6.21;;
71172;SDS011;58875;51.996;4.504;2022-12-29T06:15:30;10.33;;;6.55;;
71172;SDS011;58875;51.996;4.504;2022-12-29T06:17:59;8.45;;;5.45;;
71172;SDS011;58875;51.996;4.504;2022-12-29T06:20:24;8.74;;;5.59;;
71172;SDS011;58875;51.996;4.504;2022-12-29T06:22:50;8.61;;;5.51;;
71172;SDS011;58875;51.996;4.504;2022-12-29T06:25:15;10.11;;;6.42;;
71172;SDS011;58875;51.996;4.504;2022-12-29T06:27:41;9.11;;;5.76;;
71172;SDS011;58875;51.996;4.504;2022-12-29T06:30:08;10.06;;;6.31;;
71172;SDS011;58875;51.996;4.504;2022-12-29T06:32:34;10.40;;;6.47;;
71172;SDS011;58875;51.996;4.504;2022-12-29T06:35:00;11.12;;;6.85;;
71172;SDS011;58875;51.996;4.504;2022-12-29T06:37:26;11.14;;;6.85;;
71172;SDS011;58875;51.996;4.504;2022-12-29T06:39:51;11.82;;;7.26;;
71172;SDS011;58875;51.996;4.504;2022-12-29T06:42:17;12.01;;;7.39;;
71172;SDS011;58875;51.996;4.504;2022-12-29T06:44:42;11.61;;;7.13;;
71172;SDS011;58875;51.996;4.504;2022-12-29T06:47:08;10.48;;;6.50;;
71172;SDS011;58875;51.996;4.504;2022-12-29T06:49:33;9.76;;;6.06;;
71172;SDS011;58875;51.996;4.504;2022-12-29T06:51:59;10.29;;;6.35;;
71172;SDS011;58875;51.996;4.504;2022-12-29T06:54:25;8.33;;;5.19;;
71172;SDS011;58875;51.996;4.504;2022-12-29T06:56:51;8.82;;;5.48;;
71172;SDS011;58875;51.996;4.504;2022-12-29T06:59:17;7.95;;;4.96;;
71172;SDS011;58875;51.996;4.504;2022-12-29T07:01:42;8.22;;;5.17;;
71172;SDS011;58875;51.996;4.504;2022-12-29T07:04:08;7.77;;;4.88;;
71172;SDS011;58875;51.996;4.504;2022-12-29T07:06:33;7.65;;;4.81;;
71172;SDS011;58875;51.996;4.504;2022-12-29T07:08:59;6.69;;;4.22;;
71172;SDS011;58875;51.996;4.504;2022-12-29T07:11:25;7.94;;;4.99;;
71172;SDS011;58875;51.996;4.504;2022-12-29T07:13:50;7.50;;;4.72;;
71172;SDS011;58875;51.996;4.504;2022-12-29T07:16:16;7.21;;;4.55;;
71172;SDS011;58875;51.996;4.504;2022-12-29T07:18:42;7.58;;;4.81;;
71172;SDS011;58875;51.996;4.504;2022-12-29T07:21:07;8.06;;;5.12;;
71172;SDS011;58875;51.996;4.504;2022-12-29T07:23:33;7.70;;;4.93;;
71172;SDS011;58875;51.996;4.504;2022-12-29T07:26:02;7.81;;;5.05;;
71172;SDS011;58875;51.996;4.504;2022-12-29T07:28:30;7.81;;;5.11;;
71172;SDS011;58875;51.996;4.504;2022-12-29T07:30:57;7.44;;;4.91;;
71172;SDS011;58875;51.996;4.504;2022-12-29T07:33:23;8.16;;;5.32;;
71172;SDS011;58875;51.996;4.504;2022-12-29T07:35:49;8.30;;;5.36;;
71172;SDS011;58875;51.996;4.504;2022-12-29T07:38:14;7.06;;;4.62;;
71172;SDS011;58875;51.996;4.504;2022-12-29T07:40:41;7.92;;;5.17;;
71172;SDS011;58875;51.996;4.504;2022-12-29T07:43:07;8.91;;;5.71;;
71172;SDS011;58875;51.996;4.504;2022-12-29T07:45:33;8.07;;;5.13;;
71172;SDS011;58875;51.996;4.504;2022-12-29T07:47:58;8.90;;;5.67;;
71172;SDS011;58875;51.996;4.504;2022-12-29T07:50:24;8.64;;;5.52;;
71172;SDS011;58875;51.996;4.504;2022-12-29T07:52:49;9.58;;;6.04;;
71172;SDS011;58875;51.996;4.504;2022-12-29T07:55:15;10.35;;;6.46;;
71172;SDS011;58875;51.996;4.504;2022-12-29T07:57:41;10.07;;;6.34;;
71172;SDS011;58875;51.996;4.504;2022-12-29T08:00:07;10.39;;;6.51;;
71172;SDS011;58875;51.996;4.504;2022-12-29T08:02:34;10.32;;;6.37;;
71172;SDS011;58875;51.996;4.504;2022-12-29T08:05:01;11.07;;;6.87;;
71172;SDS011;58875;51.996;4.504;2022-12-29T08:07:26;10.08;;;6.31;;
71172;SDS011;58875;51.996;4.504;2022-12-29T08:09:52;9.74;;;6.11;;
71172;SDS011;58875;51.996;4.504;2022-12-29T08:12:18;9.74;;;6.10;;
71172;SDS011;58875;51.996;4.504;2022-12-29T08:14:43;10.22;;;6.41;;
71172;SDS011;58875;51.996;4.504;2022-12-29T08:17:12;9.35;;;5.85;;
71172;SDS011;58875;51.996;4.504;2022-12-29T08:19:37;9.33;;;5.83;;
71172;SDS011;58875;51.996;4.504;2022-12-29T08:22:03;11.85;;;7.37;;
71172;SDS011;58875;51.996;4.504;2022-12-29T08:24:28;11.06;;;6.92;;
71172;SDS011;58875;51.996;4.504;2022-12-29T08:26:54;11.75;;;7.30;;
71172;SDS011;58875;51.996;4.504;2022-12-29T08:29:19;10.74;;;6.68;;
71172;SDS011;58875;51.996;4.504;2022-12-29T08:31:46;11.35;;;7.06;;
71172;SDS011;58875;51.996;4.504;2022-12-29T08:34:12;10.40;;;6.47;;
71172;SDS011;58875;51.996;4.504;2022-12-29T08:36:38;10.57;;;6.56;;
71172;SDS011;58875;51.996;4.504;2022-12-29T08:39:04;10.33;;;6.40;;
71172;SDS011;58875;51.996;4.504;2022-12-29T08:41:30;10.63;;;6.65;;
71172;SDS011;58875;51.996;4.504;2022-12-29T08:43:55;10.47;;;6.59;;
71172;SDS011;58875;51.996;4.504;2022-12-29T08:46:21;10.01;;;6.36;;
71172;SDS011;58875;51.996;4.504;2022-12-29T08:48:46;11.29;;;7.10;;
71172;SDS011;58875;51.996;4.504;2022-12-29T08:51:12;9.83;;;6.20;;
71172;SDS011;58875;51.996;4.504;2022-12-29T08:53:38;9.30;;;5.88;;
71172;SDS011;58875;51.996;4.504;2022-12-29T08:56:04;10.65;;;6.69;;
71172;SDS011;58875;51.996;4.504;2022-12-29T08:58:30;11.46;;;7.12;;
71172;SDS011;58875;51.996;4.504;2022-12-29T09:00:56;11.28;;;6.97;;
71172;SDS011;58875;51.996;4.504;2022-12-29T09:03:23;10.97;;;6.95;;
71172;SDS011;58875;51.996;4.504;2022-12-29T09:05:52;10.05;;;6.57;;
71172;SDS011;58875;51.996;4.504;2022-12-29T09:08:19;9.05;;;6.00;;
71172;SDS011;58875;51.996;4.504;2022-12-29T09:10:46;7.88;;;5.30;;
71172;SDS011;58875;51.996;4.504;2022-12-29T09:13:12;8.54;;;5.72;;
71172;SDS011;58875;51.996;4.504;2022-12-29T09:15:38;8.57;;;5.77;;
71172;SDS011;58875;51.996;4.504;2022-12-29T09:18:05;8.34;;;5.83;;
71172;SDS011;58875;51.996;4.504;2022-12-29T09:20:32;7.95;;;5.60;;
71172;SDS011;58875;51.996;4.504;2022-12-29T09:22:58;7.52;;;5.26;;
71172;SDS011;58875;51.996;4.504;2022-12-29T09:25:24;8.05;;;5.54;;
71172;SDS011;58875;51.996;4.504;2022-12-29T09:27:53;8.20;;;5.53;;
71172;SDS011;58875;51.996;4.504;2022-12-29T09:30:19;8.16;;;5.56;;
71172;SDS011;58875;51.996;4.504;2022-12-29T09:32:46;8.38;;;5.74;;
71172;SDS011;58875;51.996;4.504;2022-12-29T09:35:13;8.38;;;5.70;;
71172;SDS011;58875;51.996;4.504;2022-12-29T09:37:39;8.11;;;5.44;;
71172;SDS011;58875;51.996;4.504;2022-12-29T09:40:05;9.23;;;6.09;;
71172;SDS011;58875;51.996;4.504;2022-12-29T09:42:43;8.46;;;5.64;;
71172;SDS011;58875;51.996;4.504;2022-12-29T09:45:47;9.10;;;5.99;;
71172;SDS011;58875;51.996;4.504;2022-12-29T09:48:29;8.67;;;5.80;;
71172;SDS011;58875;51.996;4.504;2022-12-29T09:51:00;10.00;;;6.58;;
71172;SDS011;58875;51.996;4.504;2022-12-29T09:53:40;10.14;;;6.67;;
71172;SDS011;58875;51.996;4.504;2022-12-29T09:56:17;9.95;;;6.63;;
71172;SDS011;58875;51.996;4.504;2022-12-29T10:01:34;12.20;;;7.86;;
71172;SDS011;58875;51.996;4.504;2022-12-29T10:04:09;13.11;;;8.35;;
71172;SDS011;58875;51.996;4.504;2022-12-29T10:23:01;14.93;;;9.78;;
71172;SDS011;58875;51.996;4.504;2022-12-29T10:25:54;13.46;;;8.86;;
71172;SDS011;58875;51.996;4.504;2022-12-29T10:28:38;14.90;;;9.72;;
71172;SDS011;58875;51.996;4.504;2022-12-29T10:31:14;14.21;;;9.28;;
71172;SDS011;58875;51.996;4.504;2022-12-29T10:33:46;14.47;;;9.37;;
71172;SDS011;58875;51.996;4.504;2022-12-29T10:42:25;16.59;;;10.52;;
71172;SDS011;58875;51.996;4.504;2022-12-29T10:44:46;17.34;;;11.01;;
71172;SDS011;58875;51.996;4.504;2022-12-29T10:47:14;15.24;;;9.84;;
71172;SDS011;58875;51.996;4.504;2022-12-29T10:49:47;12.34;;;8.20;;
71172;SDS011;58875;51.996;4.504;2022-12-29T10:52:14;13.94;;;9.12;;
71172;SDS011;58875;51.996;4.504;2022-12-29T10:54:46;14.41;;;9.24;;
71172;SDS011;58875;51.996;4.504;2022-12-29T10:57:32;15.34;;;9.79;;
71172;SDS011;58875;51.996;4.504;2022-12-29T11:00:01;16.90;;;10.65;;
71172;SDS011;58875;51.996;4.504;2022-12-29T11:05:24;17.52;;;10.96;;
71172;SDS011;58875;51.996;4.504;2022-12-29T11:07:57;18.77;;;11.61;;
71172;SDS011;58875;51.996;4.504;2022-12-29T11:10:36;18.35;;;11.36;;
71172;SDS011;58875;51.996;4.504;2022-12-29T11:15:42;15.58;;;9.77;;
71172;SDS011;58875;51.996;4.504;2022-12-29T11:18:20;16.20;;;10.28;;
71172;SDS011;58875;51.996;4.504;2022-12-29T11:20:58;15.03;;;9.51;;
71172;SDS011;58875;51.996;4.504;2022-12-29T11:28:39;19.53;;;11.93;;
71172;SDS011;58875;51.996;4.504;2022-12-29T11:31:07;19.39;;;11.91;;
71172;SDS011;58875;51.996;4.504;2022-12-29T11:33:35;16.66;;;10.29;;
71172;SDS011;58875;51.996;4.504;2022-12-29T11:36:03;16.26;;;10.13;;
71172;SDS011;58875;51.996;4.504;2022-12-29T11:38:36;16.78;;;10.43;;
71172;SDS011;58875;51.996;4.504;2022-12-29T11:41:06;14.56;;;9.04;;
71172;SDS011;58875;51.996;4.504;2022-12-29T11:43:37;12.95;;;8.13;;
71172;SDS011;58875;51.996;4.504;2022-12-29T11:46:13;11.99;;;7.62;;
71172;SDS011;58875;51.996;4.504;2022-12-29T11:48:55;10.48;;;6.78;;
71172;SDS011;58875;51.996;4.504;2022-12-29T11:51:32;10.89;;;6.99;;
71172;SDS011;58875;51.996;4.504;2022-12-29T11:54:09;12.75;;;8.22;;
71172;SDS011;58875;51.996;4.504;2022-12-29T11:56:47;13.16;;;8.42;;
71172;SDS011;58875;51.996;4.504;2022-12-29T12:08:30;15.90;;;9.92;;
71172;SDS011;58875;51.996;4.504;2022-12-29T12:11:16;13.55;;;8.58;;
71172;SDS011;58875;51.996;4.504;2022-12-29T12:13:55;14.35;;;9.11;;
71172;SDS011;58875;51.996;4.504;2022-12-29T12:16:42;12.77;;;8.14;;
71172;SDS011;58875;51.996;4.504;2022-12-29T12:21:59;12.47;;;7.86;;
71172;SDS011;58875;51.996;4.504;2022-12-29T12:24:35;10.26;;;6.46;;
71172;SDS011;58875;51.996;4.504;2022-12-29T12:27:16;11.26;;;7.10;;
71172;SDS011;58875;51.996;4.504;2022-12-29T12:34:53;8.66;;;5.53;;
71172;SDS011;58875;51.996;4.504;2022-12-29T12:57:37;11.74;;;7.42;;
71172;SDS011;58875;51.996;4.504;2022-12-29T13:00:21;12.59;;;7.90;;
71172;SDS011;58875;51.996;4.504;2022-12-29T13:08:49;10.70;;;6.84;;
71172;SDS011;58875;51.996;4.504;2022-12-29T13:14:23;10.80;;;6.83;;
71172;SDS011;58875;51.996;4.504;2022-12-29T13:30:53;9.99;;;6.42;;
71172;SDS011;58875;51.996;4.504;2022-12-29T13:38:56;10.03;;;6.76;;
71172;SDS011;58875;51.996;4.504;2022-12-29T13:41:39;8.13;;;6.03;;
71172;SDS011;58875;51.996;4.504;2022-12-29T13:44:29;6.51;;;5.34;;
71172;SDS011;58875;51.996;4.504;2022-12-29T13:47:00;4.77;;;4.01;;
71172;SDS011;58875;51.996;4.504;2022-12-29T13:49:40;4.54;;;3.81;;
71172;SDS011;58875;51.996;4.504;2022-12-29T13:54:57;3.78;;;3.03;;
71172;SDS011;58875;51.996;4.504;2022-12-29T13:57:55;3.96;;;3.15;;
71172;SDS011;58875;51.996;4.504;2022-12-29T14:00:31;4.84;;;3.85;;
71172;SDS011;58875;51.996;4.504;2022-12-29T14:06:29;4.42;;;3.45;;
71172;SDS011;58875;51.996;4.504;2022-12-29T14:09:00;4.42;;;3.39;;
71172;SDS011;58875;51.996;4.504;2022-12-29T14:11:33;4.52;;;3.49;;
71172;SDS011;58875;51.996;4.504;2022-12-29T14:16:50;4.89;;;3.57;;
71172;SDS011;58875;51.996;4.504;2022-12-29T14:19:19;5.95;;;4.32;;
71172;SDS011;58875;51.996;4.504;2022-12-29T14:21:55;5.52;;;4.05;;
71172;SDS011;58875;51.996;4.504;2022-12-29T14:24:27;5.56;;;3.99;;
71172;SDS011;58875;51.996;4.504;2022-12-29T14:33:10;5.41;;;3.76;;
71172;SDS011;58875;51.996;4.504;2022-12-29T14:34:59;6.83;;;4.63;;
71172;SDS011;58875;51.996;4.504;2022-12-29T14:37:45;6.72;;;4.59;;
71172;SDS011;58875;51.996;4.504;2022-12-29T14:40:19;5.96;;;4.07;;
71172;SDS011;58875;51.996;4.504;2022-12-29T14:42:55;6.49;;;4.46;;
71172;SDS011;58875;51.996;4.504;2022-12-29T14:45:26;5.57;;;3.90;;
71172;SDS011;58875;51.996;4.504;2022-12-29T14:47:54;6.27;;;4.36;;
71172;SDS011;58875;51.996;4.504;2022-12-29T14:52:47;5.38;;;3.83;;
71172;SDS011;58875;51.996;4.504;2022-12-29T14:55:43;5.39;;;3.90;;
71172;SDS011;58875;51.996;4.504;2022-12-29T15:01:15;6.00;;;4.35;;
71172;SDS011;58875;51.996;4.504;2022-12-29T15:03:44;5.46;;;3.95;;
71172;SDS011;58875;51.996;4.504;2022-12-29T15:06:15;5.14;;;3.73;;
71172;SDS011;58875;51.996;4.504;2022-12-29T15:14:01;5.65;;;4.09;;
71172;SDS011;58875;51.996;4.504;2022-12-29T15:16:32;5.88;;;4.26;;
71172;SDS011;58875;51.996;4.504;2022-12-29T15:19:00;5.44;;;3.91;;
71172;SDS011;58875;51.996;4.504;2022-12-29T15:21:29;5.63;;;3.98;;
71172;SDS011;58875;51.996;4.504;2022-12-29T15:23:57;5.98;;;4.16;;
71172;SDS011;58875;51.996;4.504;2022-12-29T15:26:23;8.33;;;5.62;;
71172;SDS011;58875;51.996;4.504;2022-12-29T15:29:03;8.12;;;5.41;;
71172;SDS011;58875;51.996;4.504;2022-12-29T15:31:29;8.11;;;5.31;;
71172;SDS011;58875;51.996;4.504;2022-12-29T15:34:19;9.51;;;6.16;;
71172;SDS011;58875;51.996;4.504;2022-12-29T15:36:46;9.30;;;6.05;;
71172;SDS011;58875;51.996;4.504;2022-12-29T15:39:33;8.20;;;5.42;;
71172;SDS011;58875;51.996;4.504;2022-12-29T15:42:05;8.87;;;5.80;;
71172;SDS011;58875;51.996;4.504;2022-12-29T15:44:54;8.38;;;5.61;;
71172;SDS011;58875;51.996;4.504;2022-12-29T15:47:22;6.95;;;4.62;;
71172;SDS011;58875;51.996;4.504;2022-12-29T15:49:52;7.49;;;5.04;;
71172;SDS011;58875;51.996;4.504;2022-12-29T15:52:28;7.08;;;4.71;;
71172;SDS011;58875;51.996;4.504;2022-12-29T15:54:58;6.51;;;4.31;;
71172;SDS011;58875;51.996;4.504;2022-12-29T15:57:30;8.46;;;5.73;;
71172;SDS011;58875;51.996;4.504;2022-12-29T16:00:03;5.94;;;4.16;;
71172;SDS011;58875;51.996;4.504;2022-12-29T16:02:29;5.73;;;3.91;;
71172;SDS011;58875;51.996;4.504;2022-12-29T16:04:55;5.66;;;3.76;;
71172;SDS011;58875;51.996;4.504;2022-12-29T16:09:55;7.02;;;4.57;;
71172;SDS011;58875;51.996;4.504;2022-12-29T16:12:33;7.15;;;4.63;;
71172;SDS011;58875;51.996;4.504;2022-12-29T16:15:02;6.92;;;4.44;;
71172;SDS011;58875;51.996;4.504;2022-12-29T16:17:32;7.55;;;4.89;;
71172;SDS011;58875;51.996;4.504;2022-12-29T16:20:17;7.40;;;4.80;;
71172;SDS011;58875;51.996;4.504;2022-12-29T16:22:47;7.20;;;4.63;;
71172;SDS011;58875;51.996;4.504;2022-12-29T16:25:23;7.26;;;4.66;;
71172;SDS011;58875;51.996;4.504;2022-12-29T16:27:54;7.38;;;4.81;;
71172;SDS011;58875;51.996;4.504;2022-12-29T16:30:21;6.79;;;4.48;;
71172;SDS011;58875;51.996;4.504;2022-12-29T16:32:51;7.33;;;4.83;;
71172;SDS011;58875;51.996;4.504;2022-12-29T16:40:55;6.97;;;4.77;;
71172;SDS011;58875;51.996;4.504;2022-12-29T16:48:26;7.34;;;4.92;;
71172;SDS011;58875;51.996;4.504;2022-12-29T16:51:16;7.14;;;4.81;;
71172;SDS011;58875;51.996;4.504;2022-12-29T16:53:55;7.41;;;5.04;;
71172;SDS011;58875;51.996;4.504;2022-12-29T16:56:22;6.94;;;4.80;;
71172;SDS011;58875;51.996;4.504;2022-12-29T16:59:08;6.68;;;4.60;;
71172;SDS011;58875;51.996;4.504;2022-12-29T17:02:14;6.62;;;4.60;;
71172;SDS011;58875;51.996;4.504;2022-12-29T17:04:43;7.40;;;5.36;;
71172;SDS011;58875;51.996;4.504;2022-12-29T17:07:17;5.96;;;4.33;;
71172;SDS011;58875;51.996;4.504;2022-12-29T17:09:47;5.94;;;4.26;;
71172;SDS011;58875;51.996;4.504;2022-12-29T17:12:15;6.50;;;4.65;;
71172;SDS011;58875;51.996;4.504;2022-12-29T17:20:02;5.53;;;3.82;;
71172;SDS011;58875;51.996;4.504;2022-12-29T17:22:40;6.03;;;4.20;;
71172;SDS011;58875;51.996;4.504;2022-12-29T17:25:05;5.07;;;3.59;;
71172;SDS011;58875;51.996;4.504;2022-12-29T17:27:33;5.76;;;4.00;;
71172;SDS011;58875;51.996;4.504;2022-12-29T17:30:13;5.72;;;3.94;;
71172;SDS011;58875;51.996;4.504;2022-12-29T17:32:41;6.69;;;4.51;;
71172;SDS011;58875;51.996;4.504;2022-12-29T17:35:17;7.15;;;4.71;;
71172;SDS011;58875;51.996;4.504;2022-12-29T17:37:44;8.79;;;5.73;;
71172;SDS011;58875;51.996;4.504;2022-12-29T17:40:18;8.22;;;5.37;;
71172;SDS011;58875;51.996;4.504;2022-12-29T17:42:51;7.40;;;4.94;;
71172;SDS011;58875;51.996;4.504;2022-12-29T17:45:31;7.61;;;5.19;;
71172;SDS011;58875;51.996;4.504;2022-12-29T17:47:57;7.66;;;5.23;;
71172;SDS011;58875;51.996;4.504;2022-12-29T17:50:27;8.74;;;5.87;;
71172;SDS011;58875;51.996;4.504;2022-12-29T17:52:55;8.47;;;5.76;;
71172;SDS011;58875;51.996;4.504;2022-12-29T17:55:27;7.13;;;4.95;;
71172;SDS011;58875;51.996;4.504;2022-12-29T17:57:54;7.08;;;4.92;;
71172;SDS011;58875;51.996;4.504;2022-12-29T18:00:21;7.16;;;4.92;;
71172;SDS011;58875;51.996;4.504;2022-12-29T18:02:57;7.67;;;5.21;;
71172;SDS011;58875;51.996;4.504;2022-12-29T18:05:24;8.55;;;5.73;;
71172;SDS011;58875;51.996;4.504;2022-12-29T18:07:53;8.42;;;5.68;;
71172;SDS011;58875;51.996;4.504;2022-12-29T18:10:22;7.92;;;5.34;;